This is the latest recevied weather packets stored in our database for station/object DM3FAM-13. If no packets are shown the sender has not sent any weather packets the latest 10 day(s).
| Time | Temp. | Humidity | Pressure | Rain* | Wind** | Luminosity | Snow |
|---|---|---|---|---|---|---|---|
| 1777743631 | 18.89° C | 61% | 1016.7 hPa | 0 mm | - | 18 W/m² | - |
| 1777743031 | 19.44° C | 58% | 1016.8 hPa | 0 mm | - | 23 W/m² | - |
| 1777742430 | 20° C | 58% | 1016.6 hPa | 0 mm | - | 29 W/m² | - |
| 1777741830 | 20.56° C | 56% | 1016.5 hPa | 0 mm | - | 31 W/m² | - |
| 1777741231 | 21.11° C | 54% | 1016.7 hPa | 0 mm | - | 31 W/m² | - |
| 1777740031 | 22.22° C | 52% | 1016.9 hPa | 0 mm | - | 36 W/m² | - |
| 1777739431 | 23.89° C | 44% | 1016.9 hPa | 0 mm | - | 46 W/m² | - |
| 1777738230 | 25.56° C | 39% | 1017.2 hPa | 0 mm | - | 168 W/m² | - |
| 1777737630 | 26.67° C | 36% | 1017.3 hPa | 0 mm | - | 237 W/m² | - |
| 1777737031 | 27.22° C | 35% | 1017.4 hPa | 0 mm | - | 254 W/m² | - |
| 1777736430 | 27.22° C | 35% | 1017.4 hPa | 0 mm | - | 303 W/m² | - |
| 1777735830 | 27.78° C | 36% | 1017.6 hPa | 0 mm | - | 314 W/m² | - |
| 1777735230 | 27.78° C | 36% | 1017.7 hPa | 0 mm | - | 332 W/m² | - |
| 1777734630 | 27.22° C | 35% | 1017.7 hPa | 0 mm | - | 426 W/m² | - |
| 1777734031 | 27.22° C | 35% | 1017.8 hPa | 0 mm | - | 437 W/m² | - |
| 1777733430 | 26.67° C | 36% | 1018 hPa | 0 mm | - | 463 W/m² | - |
| 1777732830 | 26.11° C | 36% | 1018.1 hPa | 0 mm | - | 400 W/m² | - |
| 1777732231 | 26.11° C | 35% | 1018.3 hPa | 0 mm | - | 485 W/m² | - |
| 1777731630 | 26.11° C | 36% | 1018.6 hPa | 0 mm | - | 510 W/m² | - |
| 1777731030 | 26.67° C | 36% | 1018.6 hPa | 0 mm | - | 553 W/m² | - |
| 1777730431 | 26.67° C | 39% | 1018.8 hPa | 0 mm | - | 584 W/m² | - |
| 1777729831 | 25.56° C | 40% | 1019 hPa | 0 mm | - | 574 W/m² | - |
| 1777729231 | 25.56° C | 39% | 1019 hPa | 0 mm | - | 513 W/m² | - |
| 1777728030 | 25.56° C | 39% | 1019.4 hPa | 0 mm | - | 535 W/m² | - |
| 1777727430 | 25.56° C | 39% | 1019.4 hPa | 0 mm | - | 559 W/m² | - |
* Rain latest hour (hover to see other rain measurements)
** Current wind speed in m/s (hover to see current wind gust speed)